sensor_id;sensor_type;location;lat;lon;timestamp;pressure;altitude;pressure_sealevel;temperature;humidity
4814;BME280;15375;48.540;9.268;2023-02-16T00:00:31;98412.34;;;0.94;100.00
4814;BME280;15375;48.540;9.268;2023-02-16T00:02:56;98395.63;;;0.88;100.00
4814;BME280;15375;48.540;9.268;2023-02-16T00:05:28;98391.78;;;0.98;100.00
4814;BME280;15375;48.540;9.268;2023-02-16T00:07:55;98405.53;;;1.17;100.00
4814;BME280;15375;48.540;9.268;2023-02-16T00:10:22;98403.88;;;1.24;100.00
4814;BME280;15375;48.540;9.268;2023-02-16T00:12:47;98405.69;;;1.33;100.00
4814;BME280;15375;48.540;9.268;2023-02-16T00:15:31;98312.97;;;0.94;100.00
4814;BME280;15375;48.540;9.268;2023-02-16T00:17:59;98387.34;;;1.35;100.00
4814;BME280;15375;48.540;9.268;2023-02-16T00:20:25;98374.59;;;1.11;100.00
4814;BME280;15375;48.540;9.268;2023-02-16T00:22:51;98374.13;;;1.09;100.00
4814;BME280;15375;48.540;9.268;2023-02-16T00:25:16;98362.91;;;0.95;100.00
4814;BME280;15375;48.540;9.268;2023-02-16T00:27:42;98364.41;;;0.84;100.00
4814;BME280;15375;48.540;9.268;2023-02-16T00:30:19;98376.00;;;0.96;100.00
4814;BME280;15375;48.540;9.268;2023-02-16T00:32:45;98365.59;;;0.95;100.00
4814;BME280;15375;48.540;9.268;2023-02-16T00:35:17;98365.59;;;0.95;100.00
4814;BME280;15375;48.540;9.268;2023-02-16T00:37:44;98359.81;;;0.84;100.00
4814;BME280;15375;48.540;9.268;2023-02-16T00:40:11;98368.47;;;0.90;100.00
4814;BME280;15375;48.540;9.268;2023-02-16T00:42:36;98364.84;;;0.86;100.00
4814;BME280;15375;48.540;9.268;2023-02-16T00:45:11;98357.94;;;0.85;100.00
4814;BME280;15375;48.540;9.268;2023-02-16T00:47:41;98358.25;;;1.16;100.00
4814;BME280;15375;48.540;9.268;2023-02-16T00:50:23;98360.91;;;1.37;100.00
4814;BME280;15375;48.540;9.268;2023-02-16T00:52:50;98345.13;;;1.35;100.00
4814;BME280;15375;48.540;9.268;2023-02-16T00:55:18;98349.16;;;1.41;100.00
4814;BME280;15375;48.540;9.268;2023-02-16T01:00:31;98364.19;;;1.42;100.00
4814;BME280;15375;48.540;9.268;2023-02-16T01:03:00;98366.88;;;1.42;100.00
4814;BME280;15375;48.540;9.268;2023-02-16T01:05:28;98360.59;;;1.38;100.00
4814;BME280;15375;48.540;9.268;2023-02-16T01:07:53;98376.97;;;1.45;100.00
4814;BME280;15375;48.540;9.268;2023-02-16T01:10:38;98370.94;;;1.48;100.00
4814;BME280;15375;48.540;9.268;2023-02-16T01:13:24;98364.84;;;1.51;100.00
4814;BME280;15375;48.540;9.268;2023-02-16T01:15:50;98360.84;;;1.45;100.00
4814;BME280;15375;48.540;9.268;2023-02-16T01:18:17;98367.75;;;1.46;100.00
4814;BME280;15375;48.540;9.268;2023-02-16T01:20:43;98355.88;;;1.35;100.00
4814;BME280;15375;48.540;9.268;2023-02-16T01:23:09;98366.88;;;1.42;100.00
4814;BME280;15375;48.540;9.268;2023-02-16T01:25:36;98353.56;;;1.13;100.00
4814;BME280;15375;48.540;9.268;2023-02-16T01:28:01;98347.94;;;1.06;100.00
4814;BME280;15375;48.540;9.268;2023-02-16T01:30:27;98366.00;;;1.17;100.00
4814;BME280;15375;48.540;9.268;2023-02-16T01:32:53;98329.19;;;0.85;100.00
4814;BME280;15375;48.540;9.268;2023-02-16T01:35:20;98344.53;;;0.97;100.00
4814;BME280;15375;48.540;9.268;2023-02-16T01:37:47;98361.31;;;0.94;100.00
4814;BME280;15375;48.540;9.268;2023-02-16T01:43:02;98352.41;;;0.81;100.00
4814;BME280;15375;48.540;9.268;2023-02-16T01:45:34;98360.91;;;1.04;100.00
4814;BME280;15375;48.540;9.268;2023-02-16T01:48:04;98364.56;;;1.20;100.00
4814;BME280;15375;48.540;9.268;2023-02-16T01:50:48;98369.09;;;1.40;100.00
4814;BME280;15375;48.540;9.268;2023-02-16T01:55:43;98362.22;;;1.63;100.00
4814;BME280;15375;48.540;9.268;2023-02-16T01:58:19;98355.38;;;1.66;100.00
4814;BME280;15375;48.540;9.268;2023-02-16T02:03:25;98357.13;;;1.50;100.00
4814;BME280;15375;48.540;9.268;2023-02-16T02:06:14;98324.84;;;1.25;100.00
4814;BME280;15375;48.540;9.268;2023-02-16T02:08:48;98338.31;;;1.38;100.00
4814;BME280;15375;48.540;9.268;2023-02-16T02:13:57;98349.22;;;1.53;100.00
4814;BME280;15375;48.540;9.268;2023-02-16T02:16:24;98353.66;;;1.49;100.00
4814;BME280;15375;48.540;9.268;2023-02-16T02:18:50;98347.81;;;1.35;100.00
4814;BME280;15375;48.540;9.268;2023-02-16T02:21:27;98344.19;;;1.31;100.00
4814;BME280;15375;48.540;9.268;2023-02-16T02:35:54;98316.81;;;1.05;100.00
4814;BME280;15375;48.540;9.268;2023-02-16T02:38:33;98314.78;;;1.02;100.00
4814;BME280;15375;48.540;9.268;2023-02-16T02:41:07;98319.72;;;1.00;100.00
4814;BME280;15375;48.540;9.268;2023-02-16T02:43:56;98313.13;;;0.35;100.00
4814;BME280;15375;48.540;9.268;2023-02-16T02:46:26;98326.09;;;0.33;100.00
4814;BME280;15375;48.540;9.268;2023-02-16T02:48:53;98310.63;;;0.30;100.00
4814;BME280;15375;48.540;9.268;2023-02-16T02:51:19;98321.09;;;0.23;100.00
4814;BME280;15375;48.540;9.268;2023-02-16T02:57:27;98330.69;;;0.53;100.00
4814;BME280;15375;48.540;9.268;2023-02-16T02:59:59;98333.81;;;0.76;100.00
4814;BME280;15375;48.540;9.268;2023-02-16T03:02:46;98320.84;;;0.78;100.00
4814;BME280;15375;48.540;9.268;2023-02-16T03:05:14;98329.63;;;1.20;100.00
4814;BME280;15375;48.540;9.268;2023-02-16T03:07:43;98308.28;;;1.36;100.00
4814;BME280;15375;48.540;9.268;2023-02-16T03:10:13;98321.03;;;1.26;100.00
4814;BME280;15375;48.540;9.268;2023-02-16T03:12:59;98328.84;;;1.19;100.00
4814;BME280;15375;48.540;9.268;2023-02-16T03:15:26;98322.66;;;1.07;100.00
4814;BME280;15375;48.540;9.268;2023-02-16T03:17:54;98334.19;;;1.07;100.00
4814;BME280;15375;48.540;9.268;2023-02-16T03:20:40;98324.09;;;1.04;100.00
4814;BME280;15375;48.540;9.268;2023-02-16T03:23:25;98326.56;;;1.09;100.00
4814;BME280;15375;48.540;9.268;2023-02-16T03:26:10;98311.81;;;0.83;100.00
4814;BME280;15375;48.540;9.268;2023-02-16T03:28:55;98304.97;;;0.52;100.00
4814;BME280;15375;48.540;9.268;2023-02-16T03:31:40;98313.34;;;0.51;100.00
4814;BME280;15375;48.540;9.268;2023-02-16T03:34:06;98307.84;;;0.47;100.00
4814;BME280;15375;48.540;9.268;2023-02-16T03:36:34;98321.97;;;0.56;100.00
4814;BME280;15375;48.540;9.268;2023-02-16T03:39:01;98329.88;;;0.74;100.00
4814;BME280;15375;48.540;9.268;2023-02-16T03:41:31;98318.88;;;0.87;100.00
4814;BME280;15375;48.540;9.268;2023-02-16T03:43:57;98321.19;;;0.77;100.00
4814;BME280;15375;48.540;9.268;2023-02-16T03:46:23;98322.09;;;0.81;100.00
4814;BME280;15375;48.540;9.268;2023-02-16T03:48:48;98316.72;;;0.81;100.00
4814;BME280;15375;48.540;9.268;2023-02-16T03:51:13;98318.34;;;0.94;100.00
4814;BME280;15375;48.540;9.268;2023-02-16T03:53:39;98324.88;;;1.05;100.00
4814;BME280;15375;48.540;9.268;2023-02-16T03:56:04;98326.00;;;1.04;100.00
4814;BME280;15375;48.540;9.268;2023-02-16T03:58:30;98338.84;;;0.98;100.00
4814;BME280;15375;48.540;9.268;2023-02-16T04:00:55;98324.91;;;0.84;100.00
4814;BME280;15375;48.540;9.268;2023-02-16T04:03:23;98330.28;;;1.17;100.00
4814;BME280;15375;48.540;9.268;2023-02-16T04:05:48;98336.81;;;1.28;100.00
4814;BME280;15375;48.540;9.268;2023-02-16T04:08:14;98334.34;;;1.23;100.00
4814;BME280;15375;48.540;9.268;2023-02-16T04:10:39;98343.31;;;1.27;100.00
4814;BME280;15375;48.540;9.268;2023-02-16T04:13:05;98352.84;;;1.37;100.00
4814;BME280;15375;48.540;9.268;2023-02-16T04:15:30;98349.84;;;1.38;100.00
4814;BME280;15375;48.540;9.268;2023-02-16T04:17:56;98366.50;;;1.32;100.00
4814;BME280;15375;48.540;9.268;2023-02-16T04:20:30;98358.97;;;1.25;100.00
4814;BME280;15375;48.540;9.268;2023-02-16T04:22:56;98348.03;;;0.97;100.00
4814;BME280;15375;48.540;9.268;2023-02-16T04:25:22;98361.97;;;0.91;100.00
4814;BME280;15375;48.540;9.268;2023-02-16T04:27:48;98364.16;;;0.77;100.00
4814;BME280;15375;48.540;9.268;2023-02-16T04:30:19;98362.38;;;0.60;100.00
4814;BME280;15375;48.540;9.268;2023-02-16T04:32:46;98368.00;;;0.46;100.00
4814;BME280;15375;48.540;9.268;2023-02-16T04:35:11;98349.34;;;0.29;100.00
4814;BME280;15375;48.540;9.268;2023-02-16T04:37:38;98359.97;;;0.17;100.00
4814;BME280;15375;48.540;9.268;2023-02-16T04:40:05;98369.13;;;0.16;100.00
4814;BME280;15375;48.540;9.268;2023-02-16T04:42:31;98353.75;;;0.05;100.00
4814;BME280;15375;48.540;9.268;2023-02-16T04:44:56;98337.22;;;-0.06;100.00
4814;BME280;15375;48.540;9.268;2023-02-16T04:47:21;98338.56;;;-0.21;100.00
4814;BME280;15375;48.540;9.268;2023-02-16T04:49:50;98349.84;;;-0.07;100.00
4814;BME280;15375;48.540;9.268;2023-02-16T04:52:15;98350.47;;;-0.10;100.00
4814;BME280;15375;48.540;9.268;2023-02-16T04:54:40;98337.88;;;-0.09;100.00
4814;BME280;15375;48.540;9.268;2023-02-16T04:57:07;98328.25;;;-0.10;100.00
4814;BME280;15375;48.540;9.268;2023-02-16T04:59:33;98364.13;;;0.06;100.00
4814;BME280;15375;48.540;9.268;2023-02-16T05:01:59;98330.94;;;-0.10;100.00
4814;BME280;15375;48.540;9.268;2023-02-16T05:04:24;98371.34;;;0.14;100.00
4814;BME280;15375;48.540;9.268;2023-02-16T05:06:49;98370.38;;;0.19;100.00
4814;BME280;15375;48.540;9.268;2023-02-16T05:09:15;98366.25;;;0.21;100.00
4814;BME280;15375;48.540;9.268;2023-02-16T05:11:40;98357.84;;;0.31;100.00
4814;BME280;15375;48.540;9.268;2023-02-16T05:14:30;98329.63;;;0.25;100.00
4814;BME280;15375;48.540;9.268;2023-02-16T05:17:17;98341.34;;;0.41;100.00
4814;BME280;15375;48.540;9.268;2023-02-16T05:19:45;98353.59;;;0.51;100.00
4814;BME280;15375;48.540;9.268;2023-02-16T05:22:11;98346.38;;;0.43;100.00
4814;BME280;15375;48.540;9.268;2023-02-16T05:24:37;98340.31;;;0.34;100.00
4814;BME280;15375;48.540;9.268;2023-02-16T05:27:05;98367.72;;;0.39;100.00
4814;BME280;15375;48.540;9.268;2023-02-16T05:29:31;98350.72;;;0.06;100.00
4814;BME280;15375;48.540;9.268;2023-02-16T05:31:56;98361.34;;;-0.06;100.00
4814;BME280;15375;48.540;9.268;2023-02-16T05:34:22;98358.88;;;-0.11;100.00
4814;BME280;15375;48.540;9.268;2023-02-16T05:36:47;98371.81;;;0.16;100.00
4814;BME280;15375;48.540;9.268;2023-02-16T05:39:12;98369.09;;;0.25;100.00
4814;BME280;15375;48.540;9.268;2023-02-16T05:41:38;98343.59;;;0.10;100.00
4814;BME280;15375;48.540;9.268;2023-02-16T05:44:05;98372.53;;;0.25;100.00
4814;BME280;15375;48.540;9.268;2023-02-16T05:46:33;98368.03;;;0.17;100.00
4814;BME280;15375;48.540;9.268;2023-02-16T05:49:00;98381.09;;;0.19;100.00
4814;BME280;15375;48.540;9.268;2023-02-16T05:51:25;98376.75;;;0.06;100.00
4814;BME280;15375;48.540;9.268;2023-02-16T05:53:51;98367.88;;;-0.16;100.00
4814;BME280;15375;48.540;9.268;2023-02-16T05:56:17;98378.44;;;-0.19;100.00
4814;BME280;15375;48.540;9.268;2023-02-16T05:58:42;98386.78;;;-0.12;100.00
4814;BME280;15375;48.540;9.268;2023-02-16T06:01:07;98369.50;;;-0.32;100.00
4814;BME280;15375;48.540;9.268;2023-02-16T06:03:33;98380.72;;;-0.38;100.00
4814;BME280;15375;48.540;9.268;2023-02-16T06:06:00;98391.75;;;-0.31;100.00
4814;BME280;15375;48.540;9.268;2023-02-16T06:08:26;98403.38;;;-0.27;100.00
4814;BME280;15375;48.540;9.268;2023-02-16T06:10:53;98389.06;;;-0.31;100.00
4814;BME280;15375;48.540;9.268;2023-02-16T06:13:19;98379.41;;;-0.24;100.00
4814;BME280;15375;48.540;9.268;2023-02-16T06:15:45;98369.78;;;-0.25;100.00
4814;BME280;15375;48.540;9.268;2023-02-16T06:18:11;98391.97;;;-0.07;100.00
4814;BME280;15375;48.540;9.268;2023-02-16T06:20:37;98376.22;;;-0.17;100.00
4814;BME280;15375;48.540;9.268;2023-02-16T06:23:03;98385.69;;;-0.11;100.00
4814;BME280;15375;48.540;9.268;2023-02-16T06:25:29;98398.25;;;-0.03;100.00
4814;BME280;15375;48.540;9.268;2023-02-16T06:27:54;98397.50;;;-0.12;100.00
4814;BME280;15375;48.540;9.268;2023-02-16T06:30:24;98395.47;;;-0.15;100.00
4814;BME280;15375;48.540;9.268;2023-02-16T06:32:50;98394.22;;;-0.18;100.00
4814;BME280;15375;48.540;9.268;2023-02-16T06:35:16;98404.72;;;-0.04;100.00
4814;BME280;15375;48.540;9.268;2023-02-16T06:37:41;98368.72;;;0.06;100.00
4814;BME280;15375;48.540;9.268;2023-02-16T06:40:07;98395.94;;;0.45;100.00
4814;BME280;15375;48.540;9.268;2023-02-16T06:42:35;98406.09;;;0.40;100.00
4814;BME280;15375;48.540;9.268;2023-02-16T06:45:00;98401.09;;;0.30;100.00
4814;BME280;15375;48.540;9.268;2023-02-16T06:47:26;98418.28;;;0.37;100.00
4814;BME280;15375;48.540;9.268;2023-02-16T06:49:51;98403.00;;;0.29;100.00
4814;BME280;15375;48.540;9.268;2023-02-16T06:52:16;98416.22;;;0.34;100.00
4814;BME280;15375;48.540;9.268;2023-02-16T06:54:42;98410.59;;;0.27;100.00
4814;BME280;15375;48.540;9.268;2023-02-16T06:57:07;98383.56;;;0.32;100.00
4814;BME280;15375;48.540;9.268;2023-02-16T06:59:32;98408.16;;;0.63;100.00
4814;BME280;15375;48.540;9.268;2023-02-16T07:01:58;98405.47;;;0.63;100.00
4814;BME280;15375;48.540;9.268;2023-02-16T07:04:23;98387.06;;;0.53;100.00
4814;BME280;15375;48.540;9.268;2023-02-16T07:06:48;98402.97;;;0.58;100.00
4814;BME280;15375;48.540;9.268;2023-02-16T07:09:14;98412.72;;;0.63;100.00
4814;BME280;15375;48.540;9.268;2023-02-16T07:11:39;98407.00;;;0.44;100.00
4814;BME280;15375;48.540;9.268;2023-02-16T07:14:04;98408.84;;;0.23;100.00
4814;BME280;15375;48.540;9.268;2023-02-16T07:16:30;98416.59;;;0.24;100.00
4814;BME280;15375;48.540;9.268;2023-02-16T07:18:55;98403.44;;;0.31;100.00
4814;BME280;15375;48.540;9.268;2023-02-16T07:21:20;98423.66;;;0.58;100.00
4814;BME280;15375;48.540;9.268;2023-02-16T07:23:46;98381.94;;;0.40;100.00
4814;BME280;15375;48.540;9.268;2023-02-16T07:26:11;98411.66;;;0.55;100.00
4814;BME280;15375;48.540;9.268;2023-02-16T07:28:37;98419.72;;;0.55;100.00
4814;BME280;15375;48.540;9.268;2023-02-16T07:31:07;98414.44;;;0.68;100.00
4814;BME280;15375;48.540;9.268;2023-02-16T07:33:32;98420.41;;;0.94;100.00
4814;BME280;15375;48.540;9.268;2023-02-16T07:35:58;98413.13;;;1.15;100.00
4814;BME280;15375;48.540;9.268;2023-02-16T07:38:23;98412.28;;;1.23;100.00
4814;BME280;15375;48.540;9.268;2023-02-16T07:40:49;98394.78;;;1.17;100.00
4814;BME280;15375;48.540;9.268;2023-02-16T07:43:14;98413.72;;;1.53;100.00
4814;BME280;15375;48.540;9.268;2023-02-16T07:45:39;98417.16;;;1.86;100.00
4814;BME280;15375;48.540;9.268;2023-02-16T07:48:06;98417.63;;;2.25;100.00
4814;BME280;15375;48.540;9.268;2023-02-16T07:50:31;98412.03;;;2.54;100.00
4814;BME280;15375;48.540;9.268;2023-02-16T07:53:00;98396.47;;;2.87;100.00
4814;BME280;15375;48.540;9.268;2023-02-16T07:55:26;98403.56;;;3.19;97.83
4814;BME280;15375;48.540;9.268;2023-02-16T07:57:51;98409.59;;;3.56;95.40
4814;BME280;15375;48.540;9.268;2023-02-16T08:00:21;98392.47;;;3.64;92.89
4814;BME280;15375;48.540;9.268;2023-02-16T08:02:46;98381.59;;;3.76;91.79
4814;BME280;15375;48.540;9.268;2023-02-16T08:05:11;98404.75;;;4.09;91.27
4814;BME280;15375;48.540;9.268;2023-02-16T08:07:37;98412.59;;;4.29;91.50
4814;BME280;15375;48.540;9.268;2023-02-16T08:10:04;98403.38;;;4.30;90.89
4814;BME280;15375;48.540;9.268;2023-02-16T08:12:31;98398.00;;;4.65;87.29
4814;BME280;15375;48.540;9.268;2023-02-16T08:14:56;98406.88;;;5.00;84.46
4814;BME280;15375;48.540;9.268;2023-02-16T08:17:21;98402.25;;;5.58;82.00
4814;BME280;15375;48.540;9.268;2023-02-16T08:19:47;98416.06;;;5.53;79.46
4814;BME280;15375;48.540;9.268;2023-02-16T08:22:12;98404.44;;;5.53;79.47
4814;BME280;15375;48.540;9.268;2023-02-16T08:24:38;98426.44;;;5.51;79.92
4814;BME280;15375;48.540;9.268;2023-02-16T08:27:04;98414.84;;;5.12;82.16
4814;BME280;15375;48.540;9.268;2023-02-16T08:29:30;98400.97;;;5.14;82.05
4814;BME280;15375;48.540;9.268;2023-02-16T08:31:56;98417.75;;;5.42;81.49
4814;BME280;15375;48.540;9.268;2023-02-16T08:34:23;98411.44;;;5.76;79.24
4814;BME280;15375;48.540;9.268;2023-02-16T08:36:54;98410.78;;;6.02;77.33
4814;BME280;15375;48.540;9.268;2023-02-16T08:39:22;98412.53;;;6.14;77.75
4814;BME280;15375;48.540;9.268;2023-02-16T08:41:49;98406.63;;;6.31;75.79
4814;BME280;15375;48.540;9.268;2023-02-16T08:44:15;98413.72;;;6.65;74.98
4814;BME280;15375;48.540;9.268;2023-02-16T08:46:43;98400.72;;;6.78;72.73
4814;BME280;15375;48.540;9.268;2023-02-16T08:49:09;98423.91;;;6.72;72.82
4814;BME280;15375;48.540;9.268;2023-02-16T08:51:36;98419.94;;;6.66;74.15
4814;BME280;15375;48.540;9.268;2023-02-16T08:54:04;98419.63;;;7.30;71.48
4814;BME280;15375;48.540;9.268;2023-02-16T08:56:30;98399.16;;;7.36;70.48
4814;BME280;15375;48.540;9.268;2023-02-16T08:58:56;98389.88;;;7.74;68.19
4814;BME280;15375;48.540;9.268;2023-02-16T09:01:21;98399.63;;;8.63;66.02
4814;BME280;15375;48.540;9.268;2023-02-16T09:03:48;98412.72;;;9.08;62.98
4814;BME280;15375;48.540;9.268;2023-02-16T09:06:15;98420.59;;;9.34;60.84
4814;BME280;15375;48.540;9.268;2023-02-16T09:08:42;98398.13;;;8.72;62.06
4814;BME280;15375;48.540;9.268;2023-02-16T09:11:14;98413.44;;;9.02;61.75
4814;BME280;15375;48.540;9.268;2023-02-16T09:13:41;98418.56;;;9.14;61.31
4814;BME280;15375;48.540;9.268;2023-02-16T09:16:12;98399.31;;;9.61;59.60
4814;BME280;15375;48.540;9.268;2023-02-16T09:18:40;98408.69;;;9.85;59.01
4814;BME280;15375;48.540;9.268;2023-02-16T09:21:08;98408.69;;;9.85;58.44
4814;BME280;15375;48.540;9.268;2023-02-16T09:23:39;98369.75;;;9.70;58.84
4814;BME280;15375;48.540;9.268;2023-02-16T09:26:06;98398.66;;;10.49;57.26
4814;BME280;15375;48.540;9.268;2023-02-16T09:28:33;98402.94;;;10.29;56.56
4814;BME280;15375;48.540;9.268;2023-02-16T09:30:59;98342.16;;;10.35;56.07
4814;BME280;15375;48.540;9.268;2023-02-16T09:33:24;98402.81;;;11.13;57.01
4814;BME280;15375;48.540;9.268;2023-02-16T09:35:51;98397.75;;;11.22;54.93
4814;BME280;15375;48.540;9.268;2023-02-16T09:38:16;98379.75;;;11.32;54.68
4814;BME280;15375;48.540;9.268;2023-02-16T09:40:43;98387.72;;;11.81;53.74
4814;BME280;15375;48.540;9.268;2023-02-16T09:45:40;98382.63;;;10.89;53.68
4814;BME280;15375;48.540;9.268;2023-02-16T09:48:22;98386.00;;;11.25;54.11
4814;BME280;15375;48.540;9.268;2023-02-16T09:50:49;98386.38;;;12.10;53.69
4814;BME280;15375;48.540;9.268;2023-02-16T09:53:37;98383.84;;;12.78;51.97
4814;BME280;15375;48.540;9.268;2023-02-16T09:58:52;98392.19;;;13.38;50.43
4814;BME280;15375;48.540;9.268;2023-02-16T10:09:37;98365.69;;;14.39;47.05
4814;BME280;15375;48.540;9.268;2023-02-16T10:12:10;98373.97;;;14.35;46.08
4814;BME280;15375;48.540;9.268;2023-02-16T10:14:43;98372.78;;;14.83;46.02
4814;BME280;15375;48.540;9.268;2023-02-16T10:20:02;98379.72;;;15.10;44.92
4814;BME280;15375;48.540;9.268;2023-02-16T10:22:34;98374.72;;;15.25;44.16
4814;BME280;15375;48.540;9.268;2023-02-16T10:25:07;98365.25;;;15.26;45.15
4814;BME280;15375;48.540;9.268;2023-02-16T10:27:41;98374.22;;;15.69;44.47
4814;BME280;15375;48.540;9.268;2023-02-16T10:35:21;98358.25;;;15.80;44.13
4814;BME280;15375;48.540;9.268;2023-02-16T10:41:31;98353.22;;;15.95;44.56
4814;BME280;15375;48.540;9.268;2023-02-16T10:43:54;98363.78;;;15.96;43.99
4814;BME280;15375;48.540;9.268;2023-02-16T10:46:30;98366.34;;;15.87;42.27
4814;BME280;15375;48.540;9.268;2023-02-16T10:48:58;98346.25;;;15.90;43.05
4814;BME280;15375;48.540;9.268;2023-02-16T10:51:31;98365.34;;;15.98;43.70
4814;BME280;15375;48.540;9.268;2023-02-16T10:54:05;98352.25;;;16.02;43.84
4814;BME280;15375;48.540;9.268;2023-02-16T10:59:14;98354.34;;;16.30;42.32
4814;BME280;15375;48.540;9.268;2023-02-16T11:01:46;98357.44;;;16.64;42.26
4814;BME280;15375;48.540;9.268;2023-02-16T11:09:33;98352.53;;;16.39;43.27
4814;BME280;15375;48.540;9.268;2023-02-16T11:11:59;98347.47;;;16.54;42.73
4814;BME280;15375;48.540;9.268;2023-02-16T11:14:27;98353.13;;;16.63;43.39
4814;BME280;15375;48.540;9.268;2023-02-16T11:17:11;98342.53;;;17.06;41.98
4814;BME280;15375;48.540;9.268;2023-02-16T11:19:45;98343.25;;;16.94;42.24
4814;BME280;15375;48.540;9.268;2023-02-16T11:22:32;98339.28;;;16.95;42.04
4814;BME280;15375;48.540;9.268;2023-02-16T11:27:57;98338.09;;;16.96;41.57
4814;BME280;15375;48.540;9.268;2023-02-16T11:30:37;98317.84;;;17.15;41.96
4814;BME280;15375;48.540;9.268;2023-02-16T11:33:19;98302.16;;;17.00;41.89
4814;BME280;15375;48.540;9.268;2023-02-16T11:35:45;98318.66;;;17.29;42.32
4814;BME280;15375;48.540;9.268;2023-02-16T11:40:51;98308.22;;;17.07;41.16
4814;BME280;15375;48.540;9.268;2023-02-16T11:43:20;98323.16;;;17.22;40.50
4814;BME280;15375;48.540;9.268;2023-02-16T11:46:10;98305.00;;;16.96;40.47
4814;BME280;15375;48.540;9.268;2023-02-16T11:48:37;98294.75;;;16.97;40.61
4814;BME280;15375;48.540;9.268;2023-02-16T11:51:05;98307.38;;;17.10;39.91
4814;BME280;15375;48.540;9.268;2023-02-16T11:53:32;98305.97;;;16.61;40.12
4814;BME280;15375;48.540;9.268;2023-02-16T11:56:12;98310.16;;;16.94;40.55
4814;BME280;15375;48.540;9.268;2023-02-16T11:58:38;98294.81;;;17.22;40.26
4814;BME280;15375;48.540;9.268;2023-02-16T12:01:23;98301.09;;;17.22;41.35
4814;BME280;15375;48.540;9.268;2023-02-16T12:12:05;98280.75;;;17.58;39.10
4814;BME280;15375;48.540;9.268;2023-02-16T12:14:43;98278.28;;;17.35;38.79
4814;BME280;15375;48.540;9.268;2023-02-16T12:19:40;98266.66;;;17.14;38.83
4814;BME280;15375;48.540;9.268;2023-02-16T12:25:00;98252.72;;;17.47;37.75
4814;BME280;15375;48.540;9.268;2023-02-16T12:43:52;98257.75;;;17.10;38.46
4814;BME280;15375;48.540;9.268;2023-02-16T12:46:30;98244.19;;;17.03;37.76
4814;BME280;15375;48.540;9.268;2023-02-16T12:49:21;98248.88;;;16.17;39.11
4814;BME280;15375;48.540;9.268;2023-02-16T12:52:19;98237.38;;;15.89;39.56
4814;BME280;15375;48.540;9.268;2023-02-16T12:54:51;98229.97;;;15.86;39.84
4814;BME280;15375;48.540;9.268;2023-02-16T12:57:23;98239.16;;;15.96;40.14
4814;BME280;15375;48.540;9.268;2023-02-16T12:59:57;98214.25;;;15.71;40.23
4814;BME280;15375;48.540;9.268;2023-02-16T13:02:31;98233.72;;;16.25;41.08
4814;BME280;15375;48.540;9.268;2023-02-16T13:05:05;98229.53;;;16.65;40.59
4814;BME280;15375;48.540;9.268;2023-02-16T13:07:41;98221.59;;;16.67;40.58
4814;BME280;15375;48.540;9.268;2023-02-16T13:10:23;98214.84;;;16.39;40.56
4814;BME280;15375;48.540;9.268;2023-02-16T13:12:54;98210.00;;;16.15;41.28
4814;BME280;15375;48.540;9.268;2023-02-16T13:15:27;98204.94;;;16.13;42.03
4814;BME280;15375;48.540;9.268;2023-02-16T13:17:59;98204.16;;;16.13;40.08
4814;BME280;15375;48.540;9.268;2023-02-16T13:20:26;98198.97;;;16.31;41.00
4814;BME280;15375;48.540;9.268;2023-02-16T13:31:25;98184.59;;;16.81;38.39
4814;BME280;15375;48.540;9.268;2023-02-16T13:34:04;98180.41;;;16.76;38.18
4814;BME280;15375;48.540;9.268;2023-02-16T13:36:53;98184.91;;;16.70;37.63
4814;BME280;15375;48.540;9.268;2023-02-16T13:39:41;98183.50;;;16.49;38.75
4814;BME280;15375;48.540;9.268;2023-02-16T13:45:00;98182.28;;;16.79;38.06
4814;BME280;15375;48.540;9.268;2023-02-16T13:47:32;98178.09;;;16.87;37.27
4814;BME280;15375;48.540;9.268;2023-02-16T13:50:07;98187.72;;;16.09;38.34
4814;BME280;15375;48.540;9.268;2023-02-16T13:52:40;98173.69;;;16.20;38.78
4814;BME280;15375;48.540;9.268;2023-02-16T13:58:01;98186.31;;;16.62;38.41
4814;BME280;15375;48.540;9.268;2023-02-16T14:03:02;98163.41;;;16.36;38.82
4814;BME280;15375;48.540;9.268;2023-02-16T14:05:32;98185.31;;;16.56;38.43
4814;BME280;15375;48.540;9.268;2023-02-16T14:16:00;98190.09;;;15.94;39.16
4814;BME280;15375;48.540;9.268;2023-02-16T14:18:39;98183.38;;;15.95;39.74
4814;BME280;15375;48.540;9.268;2023-02-16T14:21:16;98188.38;;;15.84;39.86
4814;BME280;15375;48.540;9.268;2023-02-16T14:23:42;98188.19;;;15.43;40.57
4814;BME280;15375;48.540;9.268;2023-02-16T14:26:08;98180.72;;;15.27;41.44
4814;BME280;15375;48.540;9.268;2023-02-16T14:28:55;98203.88;;;15.26;41.15
4814;BME280;15375;48.540;9.268;2023-02-16T14:31:25;98193.00;;;15.23;42.49
4814;BME280;15375;48.540;9.268;2023-02-16T14:36:21;98179.13;;;15.10;41.80
4814;BME280;15375;48.540;9.268;2023-02-16T14:38:55;98199.78;;;14.99;42.74
4814;BME280;15375;48.540;9.268;2023-02-16T14:44:24;98199.41;;;14.61;43.46
4814;BME280;15375;48.540;9.268;2023-02-16T14:47:06;98224.91;;;14.61;43.03
4814;BME280;15375;48.540;9.268;2023-02-16T14:55:07;98228.63;;;14.28;44.80
4814;BME280;15375;48.540;9.268;2023-02-16T15:00:26;98226.03;;;14.21;45.27
4814;BME280;15375;48.540;9.268;2023-02-16T15:02:57;98230.91;;;14.33;45.32
4814;BME280;15375;48.540;9.268;2023-02-16T15:05:26;98235.88;;;14.19;44.93
4814;BME280;15375;48.540;9.268;2023-02-16T15:08:18;98221.19;;;14.05;45.54
4814;BME280;15375;48.540;9.268;2023-02-16T15:10:49;98217.03;;;13.97;45.19
4814;BME280;15375;48.540;9.268;2023-02-16T15:13:26;98240.84;;;14.04;45.26
4814;BME280;15375;48.540;9.268;2023-02-16T15:15:55;98235.09;;;13.95;46.50
4814;BME280;15375;48.540;9.268;2023-02-16T15:18:24;98240.22;;;13.93;45.63
4814;BME280;15375;48.540;9.268;2023-02-16T15:20:53;98233.38;;;13.81;46.59
4814;BME280;15375;48.540;9.268;2023-02-16T15:23:25;98210.72;;;13.77;46.29
4814;BME280;15375;48.540;9.268;2023-02-16T15:26:02;98232.59;;;13.81;46.46
4814;BME280;15375;48.540;9.268;2023-02-16T15:28:33;98231.41;;;13.82;46.87
4814;BME280;15375;48.540;9.268;2023-02-16T15:31:11;98241.97;;;13.83;46.68
4814;BME280;15375;48.540;9.268;2023-02-16T15:33:51;98239.72;;;13.75;46.37
4814;BME280;15375;48.540;9.268;2023-02-16T15:36:18;98228.19;;;13.64;46.82
4814;BME280;15375;48.540;9.268;2023-02-16T15:38:56;98237.53;;;13.66;46.75
4814;BME280;15375;48.540;9.268;2023-02-16T15:43:59;98225.84;;;13.62;47.05